createdAt,value
2023-07-26T00:00:23.675Z,25.89
2023-07-26T00:02:03.458Z,25.9
2023-07-26T00:03:43.202Z,25.89
2023-07-26T00:05:22.983Z,25.89
2023-07-26T00:07:02.739Z,25.89
2023-07-26T00:08:42.546Z,25.89
2023-07-26T00:10:22.278Z,25.89
2023-07-26T00:12:02.065Z,25.89
2023-07-26T00:13:41.809Z,25.88
2023-07-26T00:15:21.587Z,25.75
2023-07-26T00:17:01.353Z,25.89
2023-07-26T00:18:41.128Z,25.89
2023-07-26T00:20:20.899Z,25.88
2023-07-26T00:22:00.719Z,25.88
2023-07-26T00:23:40.410Z,25.88
2023-07-26T00:25:20.184Z,25.88
2023-07-26T00:26:59.946Z,25.88
2023-07-26T00:28:39.746Z,25.87
2023-07-26T00:30:19.487Z,25.87
2023-07-26T00:31:59.248Z,25.87
2023-07-26T00:33:39.035Z,25.87
2023-07-26T00:35:18.802Z,25.87
2023-07-26T00:36:58.565Z,25.87
2023-07-26T00:38:38.336Z,25.86
2023-07-26T00:40:18.170Z,25.74
2023-07-26T00:41:57.854Z,25.87
2023-07-26T00:43:37.628Z,25.86
2023-07-26T00:45:17.421Z,25.86
2023-07-26T00:46:57.155Z,25.86
2023-07-26T00:48:37.103Z,25.86
2023-07-26T00:50:16.705Z,25.86
2023-07-26T00:51:56.466Z,25.86
2023-07-26T00:53:36.237Z,25.86
2023-07-26T00:55:16.002Z,25.86
2023-07-26T00:56:55.767Z,25.86
2023-07-26T00:58:35.526Z,25.85
2023-07-26T01:00:15.310Z,25.85
2023-07-26T01:01:55.081Z,25.85
2023-07-26T01:03:34.840Z,25.85
2023-07-26T01:05:14.609Z,25.76
2023-07-26T01:06:54.435Z,25.85
2023-07-26T01:08:34.153Z,25.84
2023-07-26T01:10:13.921Z,25.84
2023-07-26T01:11:53.689Z,25.84
2023-07-26T01:13:33.441Z,25.84
2023-07-26T01:15:13.203Z,25.84
2023-07-26T01:16:52.980Z,25.84
2023-07-26T01:18:32.757Z,25.84
2023-07-26T01:20:12.568Z,25.83
2023-07-26T01:21:52.286Z,25.84
2023-07-26T01:23:32.049Z,25.83
2023-07-26T01:25:11.800Z,25.83
2023-07-26T01:26:51.587Z,25.83
2023-07-26T01:28:31.357Z,25.82
2023-07-26T01:30:11.125Z,25.78
2023-07-26T01:31:50.887Z,25.83
2023-07-26T01:33:30.665Z,25.82
2023-07-26T01:35:10.518Z,25.83
2023-07-26T01:36:50.173Z,25.82
2023-07-26T01:38:29.974Z,25.82
2023-07-26T01:40:09.730Z,25.82
2023-07-26T01:41:49.482Z,25.82
2023-07-26T01:43:29.269Z,25.82
2023-07-26T01:45:09.018Z,25.82
2023-07-26T01:46:48.789Z,25.82
2023-07-26T01:48:28.555Z,25.82
2023-07-26T01:50:08.365Z,25.82
2023-07-26T01:51:48.105Z,25.81
2023-07-26T01:53:27.849Z,25.81
2023-07-26T01:55:07.633Z,25.81
2023-07-26T01:56:47.385Z,25.81
2023-07-26T01:58:27.160Z,25.81
2023-07-26T02:00:07.021Z,25.81
2023-07-26T02:01:46.696Z,25.8
2023-07-26T02:03:26.466Z,25.8
2023-07-26T02:05:06.231Z,25.81
2023-07-26T02:06:45.999Z,25.8
2023-07-26T02:08:25.783Z,25.8
2023-07-26T02:10:05.529Z,25.8
2023-07-26T02:11:45.304Z,25.8
2023-07-26T02:13:25.056Z,25.8
2023-07-26T02:15:04.833Z,25.8
2023-07-26T02:16:44.626Z,25.79
2023-07-26T02:18:24.380Z,25.79
2023-07-26T02:20:04.204Z,25.79
2023-07-26T02:21:43.914Z,25.79
2023-07-26T02:23:23.678Z,25.79
2023-07-26T02:25:03.444Z,25.79
2023-07-26T02:26:43.234Z,25.78
2023-07-26T02:28:22.972Z,25.78
2023-07-26T02:30:02.785Z,25.78
2023-07-26T02:31:42.516Z,25.78
2023-07-26T02:33:22.296Z,25.78
2023-07-26T02:35:02.059Z,25.78
2023-07-26T02:36:41.813Z,25.78
2023-07-26T02:38:21.590Z,25.78
2023-07-26T02:40:01.355Z,25.78
2023-07-26T02:41:41.111Z,25.77
2023-07-26T02:43:20.890Z,25.77
2023-07-26T02:45:00.667Z,25.78
2023-07-26T02:46:40.420Z,25.77
2023-07-26T02:48:20.197Z,25.78
2023-07-26T02:49:59.963Z,25.78
2023-07-26T02:51:39.716Z,25.77
2023-07-26T02:53:19.478Z,25.77
2023-07-26T02:54:59.269Z,25.75
2023-07-26T02:56:39.043Z,25.75
2023-07-26T02:58:18.795Z,25.74
2023-07-26T02:59:58.572Z,25.75
2023-07-26T03:01:38.363Z,25.73
2023-07-26T03:03:18.106Z,25.73
2023-07-26T03:04:57.870Z,25.72
2023-07-26T03:06:37.658Z,25.73
2023-07-26T03:08:17.403Z,25.72
2023-07-26T03:09:57.176Z,25.72
2023-07-26T03:11:36.942Z,25.73
2023-07-26T03:13:16.695Z,25.73
2023-07-26T03:14:56.476Z,25.72
2023-07-26T03:16:36.221Z,25.73
2023-07-26T03:18:16.004Z,25.73
2023-07-26T03:19:55.775Z,25.73
2023-07-26T03:21:35.545Z,25.73
2023-07-26T03:23:15.315Z,25.74
2023-07-26T03:24:55.080Z,25.73
2023-07-26T03:26:34.843Z,25.73
2023-07-26T03:28:14.602Z,25.74
2023-07-26T03:29:54.392Z,25.73
2023-07-26T03:31:34.146Z,25.74
2023-07-26T03:33:13.924Z,25.74
2023-07-26T03:34:53.666Z,25.76
2023-07-26T03:36:33.446Z,25.76
2023-07-26T03:38:13.205Z,25.78
2023-07-26T03:39:52.982Z,25.78
2023-07-26T03:41:32.764Z,25.79
2023-07-26T03:43:12.538Z,25.8
2023-07-26T03:44:52.374Z,25.82
2023-07-26T03:46:32.082Z,25.82
2023-07-26T03:48:11.846Z,25.83
2023-07-26T03:49:51.612Z,25.85
2023-07-26T03:51:31.370Z,25.87
2023-07-26T03:53:11.162Z,25.88
2023-07-26T03:54:50.931Z,25.89
2023-07-26T03:56:30.691Z,26
2023-07-26T03:58:10.485Z,25.96
2023-07-26T03:59:50.213Z,25.82
2023-07-26T04:01:29.998Z,25.97
2023-07-26T04:03:09.770Z,25.99
2023-07-26T04:04:49.547Z,26
2023-07-26T04:06:29.303Z,26.01
2023-07-26T04:08:09.088Z,26.03
2023-07-26T04:09:48.851Z,26.04
2023-07-26T04:11:28.620Z,26.07
2023-07-26T04:13:08.401Z,26.08
2023-07-26T04:14:48.160Z,26.09
2023-07-26T04:16:27.930Z,26.12
2023-07-26T04:18:07.706Z,26.14
2023-07-26T04:19:47.475Z,26.18
2023-07-26T04:21:27.239Z,26.21
2023-07-26T04:23:07.010Z,26.24
2023-07-26T04:24:46.787Z,26.27
2023-07-26T04:26:26.576Z,26.32
2023-07-26T04:28:06.330Z,26.35
2023-07-26T04:29:46.110Z,26.41
2023-07-26T04:31:25.871Z,26.46
2023-07-26T04:33:05.676Z,26.52
2023-07-26T04:34:45.420Z,26.58
2023-07-26T04:36:25.179Z,26.64
2023-07-26T04:38:04.951Z,26.71
2023-07-26T04:39:44.736Z,26.77
2023-07-26T04:41:24.578Z,26.85
2023-07-26T04:43:04.257Z,26.91
2023-07-26T04:44:44.032Z,26.99
2023-07-26T04:46:23.788Z,27.06
2023-07-26T04:48:03.572Z,27.13
2023-07-26T04:49:43.428Z,27.21
2023-07-26T04:51:23.153Z,27.26
2023-07-26T04:53:02.977Z,27.35
2023-07-26T04:54:42.776Z,27.45
2023-07-26T04:56:22.418Z,27.53
2023-07-26T04:58:02.207Z,27.96
2023-07-26T04:59:41.989Z,28.27
2023-07-26T05:01:21.743Z,28.7
2023-07-26T05:03:01.510Z,29.24
2023-07-26T05:04:41.280Z,29.16
2023-07-26T05:06:21.049Z,29.15
2023-07-26T05:08:00.814Z,29.14
2023-07-26T05:09:40.604Z,29.16
2023-07-26T05:11:20.346Z,29.15
2023-07-26T05:13:00.130Z,29.15
2023-07-26T05:14:39.903Z,29.15
2023-07-26T05:16:19.666Z,29.13
2023-07-26T05:17:59.447Z,28.97
2023-07-26T05:19:39.225Z,29.15
2023-07-26T05:21:18.985Z,29.13
2023-07-26T05:22:58.745Z,29.14
2023-07-26T05:24:38.519Z,29.13
2023-07-26T05:26:18.292Z,29.14
2023-07-26T05:27:58.061Z,29.14
2023-07-26T05:29:37.820Z,29.14
2023-07-26T05:31:17.593Z,29.14
2023-07-26T05:32:57.367Z,29.13
2023-07-26T05:34:37.144Z,29.14
2023-07-26T05:36:16.953Z,29.14
2023-07-26T05:37:56.692Z,29.14
2023-07-26T05:39:36.460Z,29.13
2023-07-26T05:41:16.220Z,29.14
2023-07-26T05:42:55.995Z,29.14
2023-07-26T05:44:35.767Z,29.14
2023-07-26T05:46:15.548Z,29.13
2023-07-26T05:47:55.305Z,29.13
2023-07-26T05:49:35.084Z,29.15
2023-07-26T05:51:14.840Z,29.15
2023-07-26T05:52:54.620Z,29.14
2023-07-26T05:54:34.391Z,29.13
2023-07-26T05:56:14.155Z,29.13
2023-07-26T05:57:53.943Z,29.13
2023-07-26T05:59:33.712Z,29.14
2023-07-26T06:01:13.490Z,29.14
2023-07-26T06:02:53.249Z,29.13
2023-07-26T06:04:33.014Z,29.12
2023-07-26T06:06:12.778Z,29.14
2023-07-26T06:07:52.722Z,29.13
2023-07-26T06:09:32.339Z,29.11
2023-07-26T06:11:12.089Z,29.14
2023-07-26T06:12:51.879Z,29.13
2023-07-26T06:14:31.661Z,29.13
2023-07-26T06:16:11.409Z,29.13
2023-07-26T06:17:51.207Z,29.13
2023-07-26T06:19:30.940Z,29.12
2023-07-26T06:21:10.731Z,29.13
2023-07-26T06:22:50.501Z,29.12
2023-07-26T06:24:30.274Z,29.13
2023-07-26T06:26:10.032Z,29.13
2023-07-26T06:27:49.792Z,29.13
2023-07-26T06:29:29.628Z,29.11
2023-07-26T06:31:09.339Z,29.12
2023-07-26T06:32:49.223Z,29.11
2023-07-26T06:34:28.879Z,29.11
2023-07-26T06:36:08.809Z,28.96
2023-07-26T06:37:48.423Z,29.12
2023-07-26T06:39:28.192Z,29.13
2023-07-26T06:41:07.959Z,29.13
2023-07-26T06:42:47.751Z,29.12
2023-07-26T06:44:27.502Z,29.12
2023-07-26T06:46:07.281Z,29.11
2023-07-26T06:47:47.035Z,29.13
2023-07-26T06:49:26.825Z,29.12
2023-07-26T06:51:06.607Z,29.12
2023-07-26T06:52:46.433Z,29.11
2023-07-26T06:54:26.115Z,29.1
2023-07-26T06:56:05.894Z,29.12
2023-07-26T06:57:45.682Z,29.11
2023-07-26T06:59:25.440Z,29.11
2023-07-26T07:01:05.238Z,29.11
2023-07-26T07:02:44.975Z,29.11
2023-07-26T07:04:24.857Z,29.11
2023-07-26T07:06:04.619Z,29.11
2023-07-26T07:07:44.293Z,29.11
2023-07-26T07:09:24.049Z,29.12
2023-07-26T07:11:03.889Z,29.11
2023-07-26T07:12:43.699Z,29.12
2023-07-26T07:14:23.369Z,29.1
2023-07-26T07:16:03.243Z,29.1
2023-07-26T07:17:42.995Z,29.1
2023-07-26T07:19:22.691Z,29.1
2023-07-26T07:21:02.685Z,29.11
2023-07-26T07:22:42.238Z,29.12
2023-07-26T07:24:22.023Z,29.1
2023-07-26T07:26:01.790Z,29.11
2023-07-26T07:27:41.624Z,29.08
2023-07-26T07:29:21.345Z,29.1
2023-07-26T07:31:01.062Z,29.1
2023-07-26T07:32:40.865Z,29.11
2023-07-26T07:34:20.759Z,29.1
2023-07-26T07:36:00.393Z,29.1
2023-07-26T07:37:40.168Z,29.1
2023-07-26T07:39:20.038Z,29.1
2023-07-26T07:40:59.753Z,29.09
2023-07-26T07:42:39.503Z,29.1
2023-07-26T07:44:19.239Z,29.1
2023-07-26T07:45:59.085Z,29.1
2023-07-26T07:47:38.778Z,29.09
2023-07-26T07:49:18.546Z,29.05
2023-07-26T07:50:58.461Z,29.08
2023-07-26T07:52:38.125Z,29.09
2023-07-26T07:54:17.893Z,29.01
2023-07-26T07:55:57.654Z,29.13
2023-07-26T07:57:37.430Z,29.1
2023-07-26T07:59:17.166Z,29.08
2023-07-26T08:00:57.002Z,29.08
2023-07-26T08:02:36.723Z,29.07
2023-07-26T08:04:16.481Z,27.76
2023-07-26T08:05:56.320Z,27.61
2023-07-26T08:07:36.053Z,27.51
2023-07-26T08:09:15.804Z,27.42
2023-07-26T08:10:55.588Z,27.35
2023-07-26T08:12:35.345Z,27.29
2023-07-26T08:14:15.178Z,27.23
2023-07-26T08:15:54.867Z,27.26
2023-07-26T08:17:34.649Z,27.29
2023-07-26T08:19:14.544Z,27.27
2023-07-26T08:20:54.172Z,27.28
2023-07-26T08:22:33.956Z,27.28
2023-07-26T08:24:13.719Z,27.27
2023-07-26T08:25:53.481Z,27.27
2023-07-26T08:27:33.285Z,27.26
2023-07-26T08:29:13.037Z,27.28
2023-07-26T08:30:52.799Z,27.26
2023-07-26T08:32:32.664Z,27.27
2023-07-26T08:34:12.358Z,27.27
2023-07-26T08:35:52.111Z,27.27
2023-07-26T08:37:31.894Z,27.28
2023-07-26T08:39:11.664Z,27.27
2023-07-26T08:40:51.448Z,27.28
2023-07-26T08:42:31.205Z,27.27
2023-07-26T08:44:10.987Z,27.26
2023-07-26T08:45:50.748Z,27.2
2023-07-26T08:47:30.502Z,27.26
2023-07-26T08:49:10.276Z,27.26
2023-07-26T08:50:50.071Z,27.26
2023-07-26T08:52:29.824Z,27.26
2023-07-26T08:54:09.586Z,27.25
2023-07-26T08:55:49.356Z,27.26
2023-07-26T08:57:29.142Z,27.26
2023-07-26T08:59:08.893Z,27.26
2023-07-26T09:00:48.683Z,27.25
2023-07-26T09:02:28.443Z,27.26
2023-07-26T09:04:08.407Z,27.25
2023-07-26T09:05:47.997Z,27.25
2023-07-26T09:07:27.804Z,27.24
2023-07-26T09:09:07.681Z,27.25
2023-07-26T09:10:47.453Z,27.25
2023-07-26T09:12:27.079Z,27.11
2023-07-26T09:14:06.881Z,27.25
2023-07-26T09:15:46.792Z,27.25
2023-07-26T09:17:26.567Z,27.25
2023-07-26T09:19:06.313Z,27.26
2023-07-26T09:20:45.923Z,27.26
2023-07-26T09:22:25.751Z,27.24
2023-07-26T09:24:05.577Z,27.22
2023-07-26T09:25:45.366Z,27.24
2023-07-26T09:27:25.033Z,27.25
2023-07-26T09:29:04.781Z,27.25
2023-07-26T09:30:44.577Z,27.24
2023-07-26T09:32:24.374Z,27.23
2023-07-26T09:34:04.091Z,27.23
2023-07-26T09:35:43.864Z,27.23
2023-07-26T09:37:23.622Z,27.23
2023-07-26T09:39:03.445Z,27.23
2023-07-26T09:40:43.190Z,27.23
2023-07-26T09:42:23.223Z,27.23
2023-07-26T09:44:02.911Z,27.24
2023-07-26T09:45:42.810Z,27.23
2023-07-26T09:47:22.397Z,27.23
2023-07-26T09:49:02.147Z,27.22
2023-07-26T09:50:42.141Z,27.23
2023-07-26T09:52:21.595Z,27.23
2023-07-26T09:54:01.330Z,27.23
2023-07-26T09:55:41.117Z,27.23
2023-07-26T09:57:20.867Z,27.21
2023-07-26T09:59:00.722Z,27.23
2023-07-26T10:00:40.508Z,27.22
2023-07-26T10:02:20.185Z,27.22
2023-07-26T10:03:59.967Z,27.18
2023-07-26T10:05:39.829Z,27.22
2023-07-26T10:07:19.524Z,27.22
2023-07-26T10:08:59.296Z,27.22
2023-07-26T10:10:39.029Z,27.21
2023-07-26T10:12:18.851Z,27.22
2023-07-26T10:13:58.576Z,27.21
2023-07-26T10:15:38.423Z,27.22
2023-07-26T10:17:18.142Z,27.21
2023-07-26T10:18:57.891Z,27.2
2023-07-26T10:20:37.704Z,27.21
2023-07-26T10:22:17.693Z,27.21
2023-07-26T10:23:57.212Z,27.21
2023-07-26T10:25:36.983Z,27.21
2023-07-26T10:27:16.843Z,27.21
2023-07-26T10:28:56.522Z,27.22
2023-07-26T10:30:36.401Z,27.04
2023-07-26T10:32:16.190Z,27.2
2023-07-26T10:33:55.915Z,27.19
2023-07-26T10:35:35.746Z,27.19
2023-07-26T10:37:15.361Z,27.2
2023-07-26T10:38:55.406Z,27.2
2023-07-26T10:40:34.987Z,27.2
2023-07-26T10:42:14.697Z,27.2
2023-07-26T10:43:54.441Z,27.19
2023-07-26T10:45:34.221Z,27.2
2023-07-26T10:47:14.000Z,27.2
2023-07-26T10:48:53.763Z,27.2
2023-07-26T10:50:33.540Z,27.19
2023-07-26T10:52:13.288Z,27.19
2023-07-26T10:53:53.072Z,27.17
2023-07-26T10:55:32.834Z,27.18
2023-07-26T10:57:12.608Z,27.19
2023-07-26T10:58:52.385Z,27.19
2023-07-26T11:00:32.150Z,27.19
2023-07-26T11:02:11.929Z,27.19
2023-07-26T11:03:51.694Z,27.2
2023-07-26T11:05:31.457Z,27.19
2023-07-26T11:07:11.236Z,27.18
2023-07-26T11:08:51.072Z,27.17
2023-07-26T11:10:30.847Z,27.17
2023-07-26T11:12:10.540Z,27.17
2023-07-26T11:13:50.503Z,27.17
2023-07-26T11:15:30.097Z,27.17
2023-07-26T11:17:09.917Z,27.18
2023-07-26T11:18:49.865Z,27.18
2023-07-26T11:20:29.403Z,27.18
2023-07-26T11:22:09.170Z,27.16
2023-07-26T11:23:48.949Z,27.18
2023-07-26T11:25:28.719Z,27.19
2023-07-26T11:27:08.482Z,27.18
2023-07-26T11:28:48.254Z,27.17
2023-07-26T11:30:28.021Z,27.17
2023-07-26T11:32:07.792Z,27.16
2023-07-26T11:33:47.559Z,27.17
2023-07-26T11:35:27.343Z,27.17
2023-07-26T11:37:07.107Z,27.16
2023-07-26T11:38:46.881Z,27.16
2023-07-26T11:40:26.666Z,27.17
2023-07-26T11:42:06.418Z,27.18
2023-07-26T11:43:46.384Z,27.17
2023-07-26T11:45:26.238Z,27.17
2023-07-26T11:47:05.781Z,27.16
2023-07-26T11:48:45.481Z,27.02
2023-07-26T11:50:25.257Z,27.17
2023-07-26T11:52:05.043Z,27.18
2023-07-26T11:53:44.820Z,27.18
2023-07-26T11:55:24.570Z,27.18
2023-07-26T11:57:04.339Z,27.18
2023-07-26T11:58:44.114Z,27.16
2023-07-26T12:00:23.886Z,27.17
2023-07-26T12:02:03.798Z,27.17
2023-07-26T12:03:43.430Z,27.18
2023-07-26T12:05:23.195Z,27.17
2023-07-26T12:07:03.061Z,27.18
2023-07-26T12:08:42.750Z,27.17
2023-07-26T12:10:22.512Z,27.18
2023-07-26T12:12:02.284Z,27.18
2023-07-26T12:13:42.057Z,27.16
2023-07-26T12:15:21.946Z,27.16
2023-07-26T12:17:01.642Z,27.17
2023-07-26T12:18:41.533Z,27.16
2023-07-26T12:20:21.219Z,27.17
2023-07-26T12:22:01.102Z,27.16
2023-07-26T12:23:40.675Z,27.15
2023-07-26T12:25:20.445Z,27.15
2023-07-26T12:27:00.211Z,27.17
2023-07-26T12:28:39.993Z,27.16
2023-07-26T12:30:19.764Z,27.17
2023-07-26T12:31:59.533Z,27.17
2023-07-26T12:33:39.307Z,27.16
2023-07-26T12:35:19.074Z,27.17
2023-07-26T12:36:58.845Z,27.17
2023-07-26T12:38:38.602Z,27.16
2023-07-26T12:40:18.383Z,27.15
2023-07-26T12:41:58.152Z,27.17
2023-07-26T12:43:37.926Z,27.17
2023-07-26T12:45:17.715Z,27.17
2023-07-26T12:46:57.465Z,27.16
2023-07-26T12:48:37.294Z,27.17
2023-07-26T12:50:17.183Z,27.16
2023-07-26T12:51:56.881Z,27.16
2023-07-26T12:53:36.613Z,27.15
2023-07-26T12:55:16.345Z,27.16
2023-07-26T12:56:56.093Z,27.16
2023-07-26T12:58:35.877Z,27.16
2023-07-26T13:00:15.635Z,27.16
2023-07-26T13:01:55.392Z,27.16
2023-07-26T13:03:35.173Z,27.15
2023-07-26T13:05:14.949Z,27.15
2023-07-26T13:06:54.711Z,27
2023-07-26T13:08:34.495Z,27.15
2023-07-26T13:10:14.252Z,27.16
2023-07-26T13:11:54.024Z,27.17
2023-07-26T13:13:33.791Z,27.15
2023-07-26T13:15:13.560Z,27.17
2023-07-26T13:16:53.341Z,27.16
2023-07-26T13:18:33.098Z,27.16
2023-07-26T13:20:12.879Z,27.15
2023-07-26T13:21:52.646Z,27.16
2023-07-26T13:23:32.409Z,27.17
2023-07-26T13:25:12.195Z,27.17
2023-07-26T13:26:51.950Z,27.15
2023-07-26T13:28:31.728Z,27.17
2023-07-26T13:30:11.490Z,27.16
2023-07-26T13:31:51.265Z,27.14
2023-07-26T13:33:31.041Z,27.14
2023-07-26T13:35:10.810Z,27.15
2023-07-26T13:36:50.571Z,27.15
2023-07-26T13:38:30.354Z,27.15
2023-07-26T13:40:10.115Z,27.16
2023-07-26T13:41:49.881Z,27.15
2023-07-26T13:43:29.648Z,27.16
2023-07-26T13:45:09.429Z,27.14
2023-07-26T13:46:49.194Z,27.15
2023-07-26T13:48:28.971Z,27.15
2023-07-26T13:50:08.738Z,27.13
2023-07-26T13:51:48.518Z,27.15
2023-07-26T13:53:28.289Z,27.15
2023-07-26T13:55:08.056Z,27.14
2023-07-26T13:56:47.821Z,27.14
2023-07-26T13:58:27.594Z,27.12
2023-07-26T14:00:07.364Z,27.12
2023-07-26T14:01:47.139Z,27.15
2023-07-26T14:03:26.902Z,27.13
2023-07-26T14:05:06.673Z,27.13
2023-07-26T14:06:46.449Z,27.14
2023-07-26T14:08:26.213Z,27.13
2023-07-26T14:10:06.000Z,27.13
2023-07-26T14:11:45.762Z,27.13
2023-07-26T14:13:25.535Z,27.11
2023-07-26T14:15:05.302Z,27.14
2023-07-26T14:16:45.059Z,27.12
2023-07-26T14:18:24.846Z,27.13
2023-07-26T14:20:04.601Z,27.13
2023-07-26T14:21:44.423Z,27.13
2023-07-26T14:23:24.152Z,27.13
2023-07-26T14:25:03.923Z,26.96
2023-07-26T14:26:43.687Z,27.13
2023-07-26T14:28:23.468Z,27.13
2023-07-26T14:30:03.253Z,27.13
2023-07-26T14:31:43.012Z,27.13
2023-07-26T14:33:22.774Z,27.13
2023-07-26T14:35:02.536Z,27.13
2023-07-26T14:36:42.319Z,27.13
2023-07-26T14:38:22.093Z,27.12
2023-07-26T14:40:01.852Z,27.14
2023-07-26T14:41:41.622Z,27.13
2023-07-26T14:43:21.412Z,27.12
2023-07-26T14:45:01.179Z,27.12
2023-07-26T14:46:40.942Z,27.11
2023-07-26T14:48:20.706Z,27.11
2023-07-26T14:50:00.479Z,27.12
2023-07-26T14:51:40.255Z,27.09
2023-07-26T14:53:20.020Z,27.12
2023-07-26T14:54:59.802Z,27.11
2023-07-26T14:56:39.558Z,27.12
2023-07-26T14:58:19.342Z,27.12
2023-07-26T14:59:59.098Z,27.12
2023-07-26T15:01:38.863Z,27.13
2023-07-26T15:03:18.642Z,27.13
2023-07-26T15:04:58.677Z,27.12
2023-07-26T15:08:18.187Z,27.13
2023-07-26T15:09:57.987Z,27.1
2023-07-26T15:11:37.732Z,27.12
2023-07-26T15:13:17.464Z,27.11
2023-07-26T15:14:57.303Z,27.12
2023-07-26T15:16:37.093Z,27.09
2023-07-26T15:18:16.729Z,27.13
2023-07-26T15:19:56.757Z,27.12
2023-07-26T15:21:36.310Z,27.12
2023-07-26T15:23:16.150Z,27.12
2023-07-26T15:24:55.967Z,27.12
2023-07-26T15:26:35.614Z,27.12
2023-07-26T15:28:15.279Z,27.11
2023-07-26T15:29:55.125Z,27.13
2023-07-26T15:31:35.025Z,27.12
2023-07-26T15:33:14.673Z,27.11
2023-07-26T15:34:54.288Z,27.12
2023-07-26T15:36:34.335Z,27.12
2023-07-26T15:38:13.984Z,27.13
2023-07-26T15:39:53.891Z,27.12
2023-07-26T15:41:33.610Z,27.13
2023-07-26T15:43:13.344Z,27.01
2023-07-26T15:44:52.909Z,27.12
2023-07-26T15:46:32.891Z,27.13
2023-07-26T15:48:12.825Z,27.12
2023-07-26T15:49:52.344Z,27.12
2023-07-26T15:51:32.292Z,27.13
2023-07-26T15:53:12.021Z,27.13
2023-07-26T15:54:51.654Z,27.12
2023-07-26T15:56:31.544Z,27.13
2023-07-26T15:58:11.131Z,27.12
2023-07-26T15:59:51.098Z,27.12
2023-07-26T16:01:30.697Z,27.14
2023-07-26T16:03:10.666Z,27.14
2023-07-26T16:04:50.379Z,27.12
2023-07-26T16:06:30.181Z,27.13
2023-07-26T16:08:09.992Z,27.12
2023-07-26T16:09:49.591Z,27.05
2023-07-26T16:11:29.452Z,27.13
2023-07-26T16:13:09.322Z,27.13
2023-07-26T16:14:49.013Z,27.14
2023-07-26T16:16:28.813Z,27.14
2023-07-26T16:18:08.322Z,27.14
2023-07-26T16:19:48.192Z,27.13
2023-07-26T16:21:28.124Z,27.13
2023-07-26T16:23:07.625Z,27.13
2023-07-26T16:24:47.606Z,27.13
2023-07-26T16:26:27.328Z,27.13
2023-07-26T16:28:07.164Z,27.13
2023-07-26T16:29:46.943Z,27.14
2023-07-26T16:31:26.478Z,27.14
2023-07-26T16:33:06.256Z,27.13
2023-07-26T16:34:46.134Z,27.1
2023-07-26T16:36:25.801Z,27.14
2023-07-26T16:38:05.687Z,27.13
2023-07-26T16:39:45.408Z,27.13
2023-07-26T16:41:25.268Z,27.13
2023-07-26T16:43:04.981Z,27.13
2023-07-26T16:44:44.648Z,27.13
2023-07-26T16:46:24.499Z,27.13
2023-07-26T16:48:04.206Z,27.12
2023-07-26T16:49:44.240Z,27.13
2023-07-26T16:51:23.758Z,27.13
2023-07-26T16:53:03.532Z,27.13
2023-07-26T16:54:43.404Z,27.13
2023-07-26T16:56:23.092Z,27.12
2023-07-26T16:58:02.812Z,27.12
2023-07-26T16:59:42.732Z,27.13
2023-07-26T17:01:22.611Z,27.06
2023-07-26T17:03:02.229Z,27.13
2023-07-26T17:04:41.952Z,27.13
2023-07-26T17:06:21.694Z,27.13
2023-07-26T17:08:01.458Z,27.14
2023-07-26T17:09:41.214Z,27.13
2023-07-26T17:11:21.040Z,27.13
2023-07-26T17:13:00.849Z,27.14
2023-07-26T17:14:40.521Z,27.13
2023-07-26T17:16:20.382Z,27.12
2023-07-26T17:18:00.067Z,27.14
2023-07-26T17:19:39.861Z,27.13
2023-07-26T17:21:19.638Z,27.13
2023-07-26T17:22:59.373Z,27.13
2023-07-26T17:24:39.378Z,27.12
2023-07-26T17:26:18.902Z,27.13
2023-07-26T17:27:58.675Z,27.05
2023-07-26T17:29:38.492Z,27.14
2023-07-26T17:31:18.349Z,27.13
2023-07-26T17:32:58.077Z,27.13
2023-07-26T17:34:37.787Z,27.13
2023-07-26T17:36:17.575Z,27.14
2023-07-26T17:37:57.371Z,27.14
2023-07-26T17:39:37.308Z,27.13
2023-07-26T17:41:16.945Z,27.13
2023-07-26T17:42:56.644Z,27.13
2023-07-26T17:44:36.498Z,27.13
2023-07-26T17:46:16.319Z,27.13
2023-07-26T17:47:55.963Z,27.13
2023-07-26T17:49:35.689Z,27.13
2023-07-26T17:51:15.632Z,27.12
2023-07-26T17:52:55.246Z,27.12
2023-07-26T17:54:35.065Z,27.13
2023-07-26T17:56:15.025Z,27.13
2023-07-26T17:57:54.571Z,27.12
2023-07-26T17:59:34.618Z,27.13
2023-07-26T18:01:14.457Z,27.13
2023-07-26T18:02:54.171Z,27.13
2023-07-26T18:04:33.638Z,27.13
2023-07-26T18:06:13.664Z,27.13
2023-07-26T18:07:53.352Z,27.12
2023-07-26T18:09:33.159Z,27.12
2023-07-26T18:11:12.919Z,27.14
2023-07-26T18:12:52.676Z,27.13
2023-07-26T18:14:32.290Z,27.14
2023-07-26T18:16:12.094Z,27.14
2023-07-26T18:17:52.161Z,27.13
2023-07-26T18:19:31.851Z,27.04
2023-07-26T18:21:11.603Z,27.13
2023-07-26T18:22:51.385Z,27.15
2023-07-26T18:24:31.204Z,27.14
2023-07-26T18:26:10.822Z,27.14
2023-07-26T18:27:50.703Z,27.13
2023-07-26T18:29:30.459Z,27.13
2023-07-26T18:31:10.241Z,27.13
2023-07-26T18:32:49.860Z,27.11
2023-07-26T18:34:29.789Z,27.07
2023-07-26T18:36:09.346Z,27.02
2023-07-26T18:37:49.033Z,26.99
2023-07-26T18:39:28.808Z,26.95
2023-07-26T18:41:08.916Z,26.93
2023-07-26T18:42:48.438Z,26.91
2023-07-26T18:44:28.270Z,26.86
2023-07-26T18:46:08.031Z,26.8
2023-07-26T18:47:47.705Z,26.8
2023-07-26T18:49:27.431Z,26.77
2023-07-26T18:51:07.448Z,26.74
2023-07-26T18:52:47.266Z,26.71
2023-07-26T18:54:26.827Z,26.69
2023-07-26T18:56:06.833Z,26.65
2023-07-26T18:57:46.379Z,26.63
2023-07-26T18:59:26.311Z,26.61
2023-07-26T19:01:06.125Z,26.58
2023-07-26T19:02:45.707Z,26.55
2023-07-26T19:04:25.621Z,26.54
2023-07-26T19:06:05.349Z,26.51
2023-07-26T19:07:45.160Z,26.47
2023-07-26T19:09:24.999Z,26.45
2023-07-26T19:11:04.595Z,26.39
2023-07-26T19:12:44.419Z,26.4
2023-07-26T19:14:24.085Z,26.39
2023-07-26T19:16:03.968Z,26.36
2023-07-26T19:17:43.476Z,26.35
2023-07-26T19:19:23.354Z,26.33
2023-07-26T19:21:03.194Z,26.3
2023-07-26T19:22:42.783Z,26.29
2023-07-26T19:24:22.538Z,26.27
2023-07-26T19:26:02.440Z,26.26
2023-07-26T19:27:42.224Z,26.24
2023-07-26T19:29:21.919Z,26.24
2023-07-26T19:31:01.749Z,26.23
2023-07-26T19:32:41.386Z,26.23
2023-07-26T19:34:21.184Z,26.21
2023-07-26T19:36:01.062Z,26.2
2023-07-26T19:37:41.005Z,26.19
2023-07-26T19:39:20.640Z,26.19
2023-07-26T19:41:00.218Z,26.17
2023-07-26T19:42:40.126Z,26.17
2023-07-26T19:44:20.047Z,26.16
2023-07-26T19:45:59.515Z,26.15
2023-07-26T19:47:39.443Z,26.14
2023-07-26T19:49:19.359Z,26.14
2023-07-26T19:50:59.034Z,26.13
2023-07-26T19:52:38.725Z,26.12
2023-07-26T19:54:18.616Z,26.12
2023-07-26T19:55:58.451Z,26.11
2023-07-26T19:57:38.287Z,26.11
2023-07-26T19:59:17.657Z,26.1
2023-07-26T20:00:57.429Z,26.1
2023-07-26T20:02:37.493Z,26.1
2023-07-26T20:04:17.184Z,26.09
2023-07-26T20:05:57.078Z,26.08
2023-07-26T20:07:36.807Z,26.08
2023-07-26T20:09:16.538Z,26.08
2023-07-26T20:10:56.201Z,26.08
2023-07-26T20:12:35.804Z,26.08
2023-07-26T20:14:15.943Z,26.07
2023-07-26T20:15:55.701Z,26.07
2023-07-26T20:17:35.272Z,26.07
2023-07-26T20:19:15.183Z,26.07
2023-07-26T20:20:54.839Z,26.06
2023-07-26T20:22:34.725Z,26.06
2023-07-26T20:24:14.365Z,26.05
2023-07-26T20:25:54.173Z,26.06
2023-07-26T20:27:34.014Z,26.06
2023-07-26T20:29:13.758Z,26.06
2023-07-26T20:30:53.500Z,26.05
2023-07-26T20:32:33.333Z,26.05
2023-07-26T20:34:13.103Z,26.05
2023-07-26T20:35:52.889Z,26.05
2023-07-26T20:37:32.353Z,26.04
2023-07-26T20:39:12.428Z,26.04
2023-07-26T20:40:52.262Z,26.04
2023-07-26T20:42:31.954Z,26.04
2023-07-26T20:44:11.531Z,26.04
2023-07-26T20:45:51.182Z,26.03
2023-07-26T20:47:31.118Z,26.03
2023-07-26T20:49:11.060Z,26.03
2023-07-26T20:50:50.823Z,25.9
2023-07-26T20:52:30.622Z,26.03
2023-07-26T20:54:10.332Z,26.03
2023-07-26T20:55:49.944Z,26.03
2023-07-26T20:57:29.892Z,26.03
2023-07-26T20:59:09.673Z,26.02
2023-07-26T21:00:49.370Z,26.02
2023-07-26T21:02:28.856Z,26.02
2023-07-26T21:04:08.831Z,26.02
2023-07-26T21:05:48.557Z,26.01
2023-07-26T21:07:28.466Z,26.02
2023-07-26T21:09:08.285Z,26.02
2023-07-26T21:10:47.972Z,26.01
2023-07-26T21:12:27.734Z,26.02
2023-07-26T21:14:07.559Z,26.01
2023-07-26T21:15:47.267Z,25.89
2023-07-26T21:17:27.077Z,26.01
2023-07-26T21:19:06.720Z,26.01
2023-07-26T21:20:46.646Z,26.01
2023-07-26T21:22:26.340Z,26.01
2023-07-26T21:24:06.066Z,26.01
2023-07-26T21:25:45.723Z,26
2023-07-26T21:27:25.679Z,26
2023-07-26T21:29:05.211Z,26